Time;durP1;ratioP1;P1;durP2;ratioP2;P2;SDS_P1;SDS_P2;PMS_P1;PMS_P2;Temp;Humidity;BMP_temperature;BMP_pressure;BME280_temperature;BME280_humidity;BME280_pressure;Samples;Min_cycle;Max_cycle;Signal;HPM_P1;HPM_P2
2023/04/03 00:02:10;;;;;;;3.10;2.10;;;;;;;;;;4353189;32;317512;-85
2023/04/03 00:04:37;;;;;;;3.47;2.23;;;;;;;;;;4342647;32;316628;-85
2023/04/03 00:07:04;;;;;;;6.47;4.10;;;;;;;;;;4353514;32;317241;-86
2023/04/03 00:09:31;;;;;;;3.77;2.70;;;;;;;;;;4343395;32;316712;-85
2023/04/03 00:11:59;;;;;;;4.63;2.60;;;;;;;;;;4352080;32;316617;-86
2023/04/03 00:14:27;;;;;;;4.23;2.77;;;;;;;;;;4342952;32;330725;-85
2023/04/03 00:16:54;;;;;;;3.57;2.20;;;;;;;;;;4355549;32;317236;-86
2023/04/03 00:19:21;;;;;;;4.27;2.60;;;;;;;;;;4358243;32;317572;-85
2023/04/03 00:21:47;;;;;;;5.57;2.90;;;;;;;;;;4366402;32;316571;-86
2023/04/03 00:24:14;;;;;;;5.93;3.30;;;;;;;;;;4366999;32;319320;-85
2023/04/03 00:26:41;;;;;;;7.50;4.10;;;;;;;;;;4358203;32;317478;-85
2023/04/03 00:29:09;;;;;;;9.50;4.10;;;;;;;;;;4367898;32;316483;-84
2023/04/03 00:31:36;;;;;;;15.70;6.57;;;;;;;;;;4357625;32;316770;-85
2023/04/03 00:34:03;;;;;;;11.23;5.80;;;;;;;;;;4355610;32;317740;-85
2023/04/03 00:36:30;;;;;;;10.13;6.37;;;;;;;;;;4350082;32;317979;-83
2023/04/03 00:38:57;;;;;;;11.50;5.40;;;;;;;;;;4367955;32;318255;-83
2023/04/03 00:41:23;;;;;;;11.23;6.63;;;;;;;;;;4356727;32;318626;-82
2023/04/03 00:43:50;;;;;;;11.53;6.33;;;;;;;;;;4366654;32;319082;-86
2023/04/03 00:46:19;;;;;;;12.57;6.67;;;;;;;;;;4359183;32;317779;-85
2023/04/03 00:48:48;;;;;;;14.83;6.60;;;;;;;;;;4367700;32;317424;-84
2023/04/03 00:51:17;;;;;;;9.47;5.93;;;;;;;;;;4367115;32;317524;-85
2023/04/03 00:53:47;;;;;;;9.33;5.73;;;;;;;;;;4358230;32;416369;-85
2023/04/03 00:56:16;;;;;;;10.40;6.40;;;;;;;;;;4375884;32;344710;-84
2023/04/03 00:58:49;;;;;;;10.23;6.10;;;;;;;;;;4361110;32;418973;-81
2023/04/03 01:01:22;;;;;;;16.13;5.93;;;;;;;;;;4371073;32;318267;-81
2023/04/03 01:03:49;;;;;;;10.10;6.47;;;;;;;;;;4358656;32;417530;-83
2023/04/03 01:06:20;;;;;;;10.47;7.00;;;;;;;;;;4382384;32;318424;-84
2023/04/03 01:08:51;;;;;;;13.03;7.03;;;;;;;;;;4369019;32;417592;-83
2023/04/03 01:11:18;;;;;;;12.83;6.30;;;;;;;;;;4372605;32;318660;-83
2023/04/03 01:13:45;;;;;;;8.87;6.13;;;;;;;;;;4375141;32;318146;-85
2023/04/03 01:16:11;;;;;;;11.33;6.30;;;;;;;;;;4366128;32;317091;-83
2023/04/03 01:18:41;;;;;;;6.57;4.67;;;;;;;;;;4370098;32;318386;-81
2023/04/03 01:22:00;;;;;;;5.87;4.20;;;;;;;;;;4381817;32;317233;-86
2023/04/03 01:24:33;;;;;;;5.57;3.93;;;;;;;;;;4369486;32;415738;-85
2023/04/03 01:27:05;;;;;;;6.03;4.20;;;;;;;;;;4382280;32;316499;-81
2023/04/03 01:29:32;;;;;;;6.93;4.53;;;;;;;;;;4372135;32;316955;-80
2023/04/03 01:32:02;;;;;;;5.27;3.43;;;;;;;;;;4381091;32;316632;-84
2023/04/03 01:34:30;;;;;;;4.20;3.10;;;;;;;;;;4356516;32;316701;-85
2023/04/03 01:36:57;;;;;;;6.23;3.60;;;;;;;;;;4378453;32;316563;-83
2023/04/03 01:39:24;;;;;;;33.50;18.43;;;;;;;;;;4372156;32;316513;-84
2023/04/03 01:41:51;;;;;;;30.87;15.07;;;;;;;;;;4381792;32;319279;-84
2023/04/03 01:44:18;;;;;;;8.70;4.73;;;;;;;;;;4370045;32;319154;-84
2023/04/03 01:46:44;;;;;;;8.57;4.40;;;;;;;;;;4380397;32;316662;-85
2023/04/03 01:49:12;;;;;;;8.90;5.70;;;;;;;;;;4380583;32;316698;-84
2023/04/03 01:51:39;;;;;;;10.33;6.23;;;;;;;;;;4371739;32;316886;-85
2023/04/03 01:54:06;;;;;;;12.63;6.20;;;;;;;;;;4374053;32;317729;-82
2023/04/03 01:56:33;;;;;;;11.53;6.17;;;;;;;;;;4371024;32;318422;-81
2023/04/03 01:59:00;;;;;;;8.83;6.33;;;;;;;;;;4380290;32;318492;-81
2023/04/03 02:01:26;;;;;;;8.60;5.50;;;;;;;;;;4370461;32;322648;-82
2023/04/03 02:03:53;;;;;;;6.23;4.27;;;;;;;;;;4381441;32;317364;-81
2023/04/03 02:06:22;;;;;;;7.03;4.80;;;;;;;;;;4357764;32;317642;-81
2023/04/03 02:08:48;;;;;;;11.23;5.60;;;;;;;;;;4380603;32;316448;-79
2023/04/03 02:11:17;;;;;;;8.40;3.87;;;;;;;;;;4381323;32;318277;-84
2023/04/03 02:13:44;;;;;;;6.77;3.73;;;;;;;;;;4367265;32;416823;-84
2023/04/03 02:16:12;;;;;;;5.67;3.80;;;;;;;;;;4380589;32;317190;-84
2023/04/03 02:18:39;;;;;;;3.70;2.63;;;;;;;;;;4376108;32;316946;-84
2023/04/03 02:21:06;;;;;;;5.90;2.90;;;;;;;;;;4388856;32;317036;-84
2023/04/03 02:23:35;;;;;;;5.23;3.17;;;;;;;;;;4372482;32;317522;-85
2023/04/03 02:26:07;;;;;;;9.27;5.20;;;;;;;;;;4381575;32;316750;-85
2023/04/03 02:28:34;;;;;;;10.80;3.57;;;;;;;;;;4370795;32;317782;-85
2023/04/03 02:31:01;;;;;;;8.03;4.20;;;;;;;;;;4382161;32;317595;-83
2023/04/03 02:33:28;;;;;;;5.80;3.90;;;;;;;;;;4376196;32;317011;-85
2023/04/03 02:35:56;;;;;;;4.80;3.50;;;;;;;;;;4383222;32;316465;-85
2023/04/03 02:38:23;;;;;;;5.53;3.43;;;;;;;;;;4370355;32;333579;-85
2023/04/03 02:40:51;;;;;;;4.90;3.43;;;;;;;;;;4381756;32;317228;-85
2023/04/03 02:43:19;;;;;;;8.80;5.00;;;;;;;;;;4370457;32;317228;-85
2023/04/03 02:45:46;;;;;;;8.90;4.57;;;;;;;;;;4379793;32;317114;-85
2023/04/03 02:48:14;;;;;;;8.10;5.67;;;;;;;;;;4381152;32;316772;-84
2023/04/03 02:50:42;;;;;;;9.60;5.37;;;;;;;;;;4370033;32;317456;-85
2023/04/03 02:53:08;;;;;;;11.53;7.17;;;;;;;;;;4379843;32;316372;-83
2023/04/03 02:55:35;;;;;;;18.37;5.43;;;;;;;;;;4372871;32;318340;-86
2023/04/03 02:58:04;;;;;;;8.30;4.87;;;;;;;;;;4384092;32;318433;-85
2023/04/03 03:00:31;;;;;;;13.10;5.67;;;;;;;;;;4374176;32;317253;-82
2023/04/03 03:02:58;;;;;;;13.07;5.93;;;;;;;;;;4383930;32;317860;-86
2023/04/03 03:05:25;;;;;;;8.50;5.70;;;;;;;;;;4349632;32;318572;-85
2023/04/03 03:07:51;;;;;;;14.77;8.90;;;;;;;;;;4362310;32;351977;-85
2023/04/03 03:10:18;;;;;;;13.07;8.30;;;;;;;;;;4352166;32;317945;-84
2023/04/03 03:12:48;;;;;;;11.10;6.90;;;;;;;;;;4367774;32;318399;-85
2023/04/03 03:15:19;;;;;;;16.37;10.10;;;;;;;;;;4367455;32;324717;-86
2023/04/03 03:17:47;;;;;;;20.60;11.47;;;;;;;;;;4353378;32;418553;-86
2023/04/03 03:20:15;;;;;;;21.93;13.40;;;;;;;;;;4365265;32;319270;-84
2023/04/03 03:22:42;;;;;;;21.43;10.13;;;;;;;;;;4360502;32;420329;-85
2023/04/03 03:25:09;;;;;;;15.70;8.87;;;;;;;;;;4367822;32;319378;-86
2023/04/03 03:27:36;;;;;;;19.07;10.10;;;;;;;;;;4359122;32;318377;-85
2023/04/03 03:30:04;;;;;;;23.80;9.93;;;;;;;;;;4368412;32;319012;-86
2023/04/03 03:32:32;;;;;;;16.20;8.13;;;;;;;;;;4355779;32;317510;-85
2023/04/03 03:34:58;;;;;;;16.97;8.60;;;;;;;;;;4352880;32;317634;-85
2023/04/03 03:37:25;;;;;;;19.53;10.70;;;;;;;;;;4355622;32;318561;-85
2023/04/03 03:39:52;;;;;;;22.97;10.73;;;;;;;;;;4368876;32;319478;-85
2023/04/03 03:42:19;;;;;;;29.13;11.77;;;;;;;;;;4358855;32;319285;-86
2023/04/03 03:44:46;;;;;;;22.30;12.80;;;;;;;;;;4368142;32;319413;-86
2023/04/03 03:47:12;;;;;;;22.47;12.63;;;;;;;;;;4370579;32;319452;-86
2023/04/03 03:49:40;;;;;;;27.40;12.67;;;;;;;;;;4365146;32;319364;-82
2023/04/03 03:52:10;;;;;;;33.33;18.73;;;;;;;;;;4387967;32;319232;-81
2023/04/03 03:54:37;;;;;;;32.45;18.35;;;;;;;;;;4372835;32;318861;-82
2023/04/03 03:57:04;;;;;;;40.00;20.43;;;;;;;;;;4383682;32;317402;-81
2023/04/03 03:59:31;;;;;;;39.27;20.23;;;;;;;;;;4372392;32;318413;-85
2023/04/03 04:01:57;;;;;;;40.60;22.23;;;;;;;;;;4368143;32;318878;-83
2023/04/03 04:04:24;;;;;;;39.10;19.60;;;;;;;;;;4357042;32;318912;-85
2023/04/03 04:06:52;;;;;;;27.93;14.33;;;;;;;;;;4367039;32;318651;-81
2023/04/03 04:09:19;;;;;;;32.23;12.97;;;;;;;;;;4358375;32;319640;-85
2023/04/03 04:11:46;;;;;;;21.07;12.77;;;;;;;;;;4366810;32;319527;-86
2023/04/03 04:14:13;;;;;;;29.60;16.40;;;;;;;;;;4366777;32;338493;-84
2023/04/03 04:16:40;;;;;;;32.20;17.77;;;;;;;;;;4372137;32;319480;-86
2023/04/03 04:19:08;;;;;;;22.60;14.93;;;;;;;;;;4381384;32;318873;-86
2023/04/03 04:21:35;;;;;;;29.27;15.63;;;;;;;;;;4371213;32;348483;-85
2023/04/03 04:24:03;;;;;;;26.87;15.77;;;;;;;;;;4383190;32;318704;-86
2023/04/03 04:26:30;;;;;;;29.73;14.53;;;;;;;;;;4373145;32;319784;-87
2023/04/03 04:28:57;;;;;;;33.20;15.00;;;;;;;;;;4381816;32;319497;-86
2023/04/03 04:31:24;;;;;;;22.20;13.57;;;;;;;;;;4371903;32;353464;-86
2023/04/03 04:33:51;;;;;;;32.10;13.73;;;;;;;;;;4370439;32;319521;-86
2023/04/03 04:36:17;;;;;;;31.03;13.37;;;;;;;;;;4353593;32;319940;-85
2023/04/03 04:38:44;;;;;;;44.10;19.77;;;;;;;;;;4367846;32;319539;-85
2023/04/03 04:41:12;;;;;;;73.67;30.93;;;;;;;;;;4367262;32;318741;-85
2023/04/03 04:43:39;;;;;;;110.87;45.77;;;;;;;;;;4357606;32;318930;-87
2023/04/03 04:46:08;;;;;;;173.83;80.87;;;;;;;;;;4367328;32;320054;-84
2023/04/03 04:48:35;;;;;;;142.63;70.13;;;;;;;;;;4350176;32;319724;-88
2023/04/03 04:51:03;;;;;;;110.80;57.33;;;;;;;;;;4376566;32;320385;-84
2023/04/03 04:53:30;;;;;;;102.20;52.60;;;;;;;;;;4357230;32;320100;-82
2023/04/03 04:55:57;;;;;;;134.43;69.37;;;;;;;;;;4365703;32;319917;-86
2023/04/03 04:58:29;;;;;;;131.10;66.23;;;;;;;;;;4350474;32;325070;-83
2023/04/03 05:01:00;;;;;;;107.33;67.13;;;;;;;;;;4376640;32;320366;-84
2023/04/03 05:03:27;;;;;;;97.53;50.23;;;;;;;;;;4355501;32;321197;-83
2023/04/03 05:05:53;;;;;;;79.10;41.23;;;;;;;;;;4366451;32;318857;-86
2023/04/03 05:08:20;;;;;;;79.23;42.27;;;;;;;;;;4357265;32;318864;-83
2023/04/03 05:10:47;;;;;;;80.67;38.93;;;;;;;;;;4366627;32;319789;-81
2023/04/03 05:13:15;;;;;;;87.77;44.50;;;;;;;;;;4365703;32;319273;-83
2023/04/03 05:15:43;;;;;;;37.30;21.37;;;;;;;;;;4352795;32;421696;-84
2023/04/03 05:18:10;;;;;;;41.80;22.23;;;;;;;;;;4367007;32;319453;-83
2023/04/03 05:20:37;;;;;;;53.93;29.17;;;;;;;;;;4363329;32;319635;-85
2023/04/03 05:23:05;;;;;;;42.37;23.53;;;;;;;;;;4369481;32;318690;-85
2023/04/03 05:25:33;;;;;;;53.53;23.40;;;;;;;;;;4355858;32;318664;-84
2023/04/03 05:28:00;;;;;;;46.77;26.43;;;;;;;;;;4365764;32;318800;-85
2023/04/03 05:30:26;;;;;;;60.93;32.67;;;;;;;;;;4356947;32;318875;-85
2023/04/03 05:32:55;;;;;;;51.47;27.53;;;;;;;;;;4365971;32;319414;-85
2023/04/03 05:35:22;;;;;;;48.60;27.00;;;;;;;;;;4349147;32;318717;-85
2023/04/03 05:37:49;;;;;;;54.57;28.20;;;;;;;;;;4367613;32;318933;-88
2023/04/03 05:40:16;;;;;;;47.70;24.47;;;;;;;;;;4367259;32;319280;-88
2023/04/03 05:42:44;;;;;;;91.40;46.83;;;;;;;;;;4352808;32;420266;-82
2023/04/03 05:45:11;;;;;;;58.37;33.50;;;;;;;;;;4365541;32;319544;-85
2023/04/03 05:47:38;;;;;;;132.80;73.23;;;;;;;;;;4355163;32;319591;-82
2023/04/03 05:50:07;;;;;;;90.40;50.53;;;;;;;;;;4365427;32;319928;-82
2023/04/03 05:52:37;;;;;;;79.87;43.13;;;;;;;;;;4356286;32;319663;-82
2023/04/03 05:55:04;;;;;;;61.07;36.80;;;;;;;;;;4365965;32;319495;-81
2023/04/03 05:57:31;;;;;;;48.77;32.93;;;;;;;;;;4356560;32;319430;-82
2023/04/03 05:59:58;;;;;;;55.07;29.33;;;;;;;;;;4364770;32;318902;-81
2023/04/03 06:02:25;;;;;;;59.63;31.03;;;;;;;;;;4356357;32;321358;-80
2023/04/03 06:04:52;;;;;;;58.97;33.07;;;;;;;;;;4365590;32;320134;-80
2023/04/03 06:07:23;;;;;;;85.27;53.40;;;;;;;;;;4356412;32;319609;-84
2023/04/03 06:09:52;;;;;;;76.07;39.63;;;;;;;;;;4350202;32;319431;-84
2023/04/03 06:12:19;;;;;;;60.03;33.03;;;;;;;;;;4341187;32;319059;-84
2023/04/03 06:14:49;;;;;;;53.13;32.47;;;;;;;;;;4351798;32;319374;-84
2023/04/03 06:17:17;;;;;;;78.70;46.90;;;;;;;;;;4350920;32;319136;-87
2023/04/03 06:19:44;;;;;;;55.80;31.77;;;;;;;;;;4336399;32;419344;-83
2023/04/03 06:22:12;;;;;;;62.10;34.90;;;;;;;;;;4350093;32;319655;-81
2023/04/03 06:24:40;;;;;;;56.70;34.17;;;;;;;;;;4340892;32;319568;-86
2023/04/03 06:27:07;;;;;;;67.40;38.40;;;;;;;;;;4351280;32;319914;-81
2023/04/03 06:29:34;;;;;;;68.40;34.73;;;;;;;;;;4340545;32;319379;-82
2023/04/03 06:32:00;;;;;;;73.87;31.97;;;;;;;;;;4351727;32;319312;-87
2023/04/03 06:34:27;;;;;;;56.40;28.30;;;;;;;;;;4372075;32;319022;-85
2023/04/03 06:36:54;;;;;;;58.30;36.37;;;;;;;;;;4380754;32;319145;-81
2023/04/03 06:39:23;;;;;;;47.43;27.97;;;;;;;;;;4368362;32;319518;-86
2023/04/03 06:41:51;;;;;;;44.70;23.57;;;;;;;;;;4366083;32;318880;-83
2023/04/03 06:44:18;;;;;;;33.50;23.20;;;;;;;;;;4356090;32;319095;-85
2023/04/03 06:46:46;;;;;;;96.17;33.97;;;;;;;;;;4365668;32;319363;-85
2023/04/03 06:49:13;;;;;;;43.17;20.00;;;;;;;;;;4365191;32;318797;-86
2023/04/03 06:51:40;;;;;;;28.20;13.97;;;;;;;;;;4348009;32;319732;-86
2023/04/03 06:54:08;;;;;;;34.70;16.73;;;;;;;;;;4350913;32;319279;-86
2023/04/03 06:56:34;;;;;;;41.23;16.60;;;;;;;;;;4355794;32;319577;-87
2023/04/03 06:59:03;;;;;;;31.43;18.07;;;;;;;;;;4366020;32;319356;-86
2023/04/03 07:01:30;;;;;;;38.00;16.93;;;;;;;;;;4355480;32;336944;-84
2023/04/03 07:03:58;;;;;;;53.80;18.73;;;;;;;;;;4365664;32;319913;-81
2023/04/03 07:06:26;;;;;;;38.23;19.63;;;;;;;;;;4354814;32;328373;-84
2023/04/03 07:08:54;;;;;;;39.77;21.93;;;;;;;;;;4369366;32;318748;-82
2023/04/03 07:11:21;;;;;;;43.73;22.07;;;;;;;;;;4355480;32;318714;-83
2023/04/03 07:13:49;;;;;;;54.70;25.43;;;;;;;;;;4364654;32;318799;-82
2023/04/03 07:16:17;;;;;;;46.50;26.63;;;;;;;;;;4365516;32;319447;-83
2023/04/03 07:18:44;;;;;;;64.80;33.77;;;;;;;;;;4350102;32;418849;-82
2023/04/03 07:21:11;;;;;;;76.73;37.80;;;;;;;;;;4362845;32;319247;-84
2023/04/03 07:23:38;;;;;;;87.23;43.00;;;;;;;;;;4354453;32;318702;-84
2023/04/03 07:26:05;;;;;;;80.00;42.80;;;;;;;;;;4364441;32;319274;-85
2023/04/03 07:28:32;;;;;;;90.07;47.70;;;;;;;;;;4353723;32;350328;-85
2023/04/03 07:31:03;;;;;;;114.13;49.47;;;;;;;;;;4365215;32;318701;-84
2023/04/03 07:33:31;;;;;;;102.47;50.37;;;;;;;;;;4346441;32;319826;-85
2023/04/03 07:36:00;;;;;;;100.73;49.23;;;;;;;;;;4360350;32;320521;-84
2023/04/03 07:38:27;;;;;;;93.63;51.13;;;;;;;;;;4355280;32;320636;-85
2023/04/03 07:40:54;;;;;;;96.67;49.57;;;;;;;;;;4365013;32;319053;-87
2023/04/03 07:43:22;;;;;;;105.23;56.77;;;;;;;;;;4357240;32;319140;-86
2023/04/03 07:45:50;;;;;;;94.90;53.63;;;;;;;;;;4368281;32;319666;-83
2023/04/03 07:48:18;;;;;;;92.53;51.63;;;;;;;;;;4367850;32;318621;-85
2023/04/03 07:50:48;;;;;;;80.40;43.67;;;;;;;;;;4376072;32;317447;-84
2023/04/03 07:53:14;;;;;;;74.23;44.97;;;;;;;;;;4374102;32;319486;-86
2023/04/03 07:55:43;;;;;;;83.30;42.47;;;;;;;;;;4358969;32;318234;-82
2023/04/03 07:58:11;;;;;;;31.27;20.30;;;;;;;;;;4364715;32;318306;-85
2023/04/03 08:00:39;;;;;;;28.37;17.77;;;;;;;;;;4349308;32;318339;-86
2023/04/03 08:03:07;;;;;;;34.00;18.20;;;;;;;;;;4357105;32;319019;-87
2023/04/03 08:05:38;;;;;;;23.23;13.57;;;;;;;;;;4342941;32;319483;-87
2023/04/03 08:08:07;;;;;;;27.37;14.57;;;;;;;;;;4352543;32;318881;-83
2023/04/03 08:10:35;;;;;;;26.57;14.20;;;;;;;;;;4342879;32;319411;-85
2023/04/03 08:13:01;;;;;;;12.97;8.80;;;;;;;;;;4352628;32;319663;-86
2023/04/03 08:15:28;;;;;;;15.60;9.27;;;;;;;;;;4345372;32;317738;-86
2023/04/03 08:17:55;;;;;;;11.47;4.87;;;;;;;;;;4357659;32;317302;-86
2023/04/03 08:20:22;;;;;;;8.27;4.03;;;;;;;;;;4341621;32;318415;-87
2023/04/03 08:22:50;;;;;;;9.73;3.97;;;;;;;;;;4351635;32;317287;-84
2023/04/03 08:25:19;;;;;;;10.20;6.57;;;;;;;;;;4342634;32;317098;-85
2023/04/03 08:27:46;;;;;;;17.13;9.30;;;;;;;;;;4354904;32;318239;-86
2023/04/03 08:30:14;;;;;;;29.80;19.07;;;;;;;;;;4359048;32;318151;-85
2023/04/03 08:32:41;;;;;;;10.60;7.00;;;;;;;;;;4349688;32;319483;-85
2023/04/03 08:35:09;;;;;;;2.17;1.60;;;;;;;;;;4366337;32;318040;-87
2023/04/03 08:37:37;;;;;;;2.07;1.30;;;;;;;;;;4357603;32;320831;-85
2023/04/03 08:40:04;;;;;;;4.50;1.77;;;;;;;;;;4367457;32;315944;-87
2023/04/03 08:42:42;;;;;;;7.37;4.70;;;;;;;;;;4356455;32;317171;-88
2023/04/03 08:45:14;;;;;;;39.43;23.43;;;;;;;;;;4365835;32;316638;-84
2023/04/03 08:47:47;;;;;;;6.03;2.83;;;;;;;;;;4354970;32;319335;-84
2023/04/03 08:50:17;;;;;;;5.33;3.80;;;;;;;;;;4366642;32;317506;-86
2023/04/03 08:52:48;;;;;;;11.73;6.93;;;;;;;;;;4352717;32;416563;-84
2023/04/03 08:55:24;;;;;;;7.10;4.73;;;;;;;;;;4368016;32;317475;-83
2023/04/03 08:58:01;;;;;;;6.53;3.73;;;;;;;;;;4353982;32;416661;-86
2023/04/03 09:00:31;;;;;;;30.40;16.63;;;;;;;;;;4357327;32;316583;-83
2023/04/03 09:02:58;;;;;;;14.37;9.40;;;;;;;;;;4365824;32;318756;-84
2023/04/03 09:05:38;;;;;;;5.70;4.30;;;;;;;;;;4358076;32;344544;-84
2023/04/03 09:08:08;;;;;;;3.40;2.20;;;;;;;;;;4368106;32;317509;-84
2023/04/03 09:10:39;;;;;;;2.43;1.50;;;;;;;;;;4359027;32;327048;-84
2023/04/03 09:13:14;;;;;;;5.53;2.10;;;;;;;;;;4366492;32;316453;-85
2023/04/03 09:15:41;;;;;;;1.63;1.43;;;;;;;;;;4357005;32;317511;-84
2023/04/03 09:18:16;;;;;;;4.63;1.80;;;;;;;;;;4365139;32;317624;-82
2023/04/03 09:20:50;;;;;;;3.00;2.07;;;;;;;;;;4354101;32;416924;-87
2023/04/03 09:23:26;;;;;;;3.50;1.57;;;;;;;;;;4362096;32;317581;-84
2023/04/03 09:25:58;;;;;;;2.60;2.07;;;;;;;;;;4378747;32;317358;-84
2023/04/03 09:28:28;;;;;;;4.23;1.90;;;;;;;;;;4370858;32;317575;-86
2023/04/03 09:30:55;;;;;;;4.93;2.37;;;;;;;;;;4383683;32;317234;-87
2023/04/03 09:33:22;;;;;;;2.77;1.73;;;;;;;;;;4363650;32;317314;-87
2023/04/03 09:35:50;;;;;;;2.70;1.70;;;;;;;;;;4366435;32;316705;-82
2023/04/03 09:38:20;;;;;;;2.40;1.70;;;;;;;;;;4359908;32;317237;-83
2023/04/03 09:40:49;;;;;;;3.27;2.57;;;;;;;;;;4366053;32;316679;-81
2023/04/03 09:43:29;;;;;;;2.40;1.50;;;;;;;;;;4365483;32;317568;-80
2023/04/03 09:46:16;;;;;;;3.43;1.43;;;;;;;;;;4351076;32;416882;-84
2023/04/03 09:48:51;;;;;;;5.18;1.95;;;;;;;;;;4351697;32;419410;-82
2023/04/03 09:51:18;;;;;;;6.37;3.70;;;;;;;;;;4356149;32;317207;-81
2023/04/03 09:53:45;;;;;;;4.10;2.50;;;;;;;;;;4365427;32;317911;-78
2023/04/03 09:56:22;;;;;;;4.47;1.77;;;;;;;;;;4364730;32;317058;-82
2023/04/03 09:58:53;;;;;;;10.40;7.20;;;;;;;;;;4352347;32;416600;-78
2023/04/03 10:01:27;;;;;;;4.73;2.83;;;;;;;;;;4355545;32;317755;-82
2023/04/03 10:04:07;;;;;;;6.10;3.77;;;;;;;;;;4366000;32;317322;-82
2023/04/03 10:06:36;;;;;;;7.17;4.47;;;;;;;;;;4352731;32;349365;-80
2023/04/03 10:09:07;;;;;;;3.27;2.03;;;;;;;;;;4364782;32;316582;-84
2023/04/03 10:11:34;;;;;;;3.83;2.30;;;;;;;;;;4356609;32;317324;-84
2023/04/03 10:14:05;;;;;;;11.73;5.13;;;;;;;;;;4367845;32;317180;-87
2023/04/03 10:16:39;;;;;;;6.47;3.43;;;;;;;;;;4356496;32;317954;-90
2023/04/03 10:19:30;;;;;;;9.70;5.23;;;;;;;;;;4364979;32;317060;-89
2023/04/03 10:22:00;;;;;;;2.73;2.00;;;;;;;;;;4353646;32;417551;-86
2023/04/03 10:24:37;;;;;;;5.33;3.33;;;;;;;;;;4357312;32;317284;-89
2023/04/03 10:27:13;;;;;;;13.73;7.43;;;;;;;;;;4366289;32;316873;-89
2023/04/03 10:29:50;;;;;;;2.20;1.83;;;;;;;;;;4356055;32;318167;-85
2023/04/03 10:32:36;;;;;;;2.80;1.73;;;;;;;;;;4362474;32;317379;-85
2023/04/03 10:35:11;;;;;;;3.90;2.33;;;;;;;;;;4353336;32;316476;-84
2023/04/03 10:37:52;;;;;;;3.47;1.90;;;;;;;;;;4355978;32;317239;-86
2023/04/03 10:40:32;;;;;;;5.47;1.67;;;;;;;;;;4349095;32;317220;-88
2023/04/03 10:43:08;;;;;;;4.40;2.07;;;;;;;;;;4354984;32;316690;-83
2023/04/03 10:45:50;;;;;;;3.93;2.33;;;;;;;;;;4343551;32;317115;-82
2023/04/03 10:48:24;;;;;;;8.00;3.20;;;;;;;;;;4349694;32;315859;-88
2023/04/03 10:50:59;;;;;;;12.80;5.27;;;;;;;;;;4336787;32;416792;-87
2023/04/03 10:53:33;;;;;;;10.07;6.73;;;;;;;;;;4339317;32;318232;-88
2023/04/03 10:56:07;;;;;;;8.77;6.47;;;;;;;;;;4351392;32;318331;-86
2023/04/03 10:58:37;;;;;;;8.50;5.63;;;;;;;;;;4339174;32;317394;-87
2023/04/03 11:01:09;;;;;;;5.97;3.97;;;;;;;;;;4353167;32;317086;-88
2023/04/03 11:03:40;;;;;;;5.53;3.63;;;;;;;;;;4342131;32;317259;-87
2023/04/03 11:06:13;;;;;;;3.53;2.80;;;;;;;;;;4357244;32;317206;-88
2023/04/03 11:08:45;;;;;;;16.73;8.47;;;;;;;;;;4340426;32;317091;-88
2023/04/03 11:11:17;;;;;;;7.57;3.27;;;;;;;;;;4350445;32;317445;-87
2023/04/03 11:13:50;;;;;;;11.60;4.90;;;;;;;;;;4336640;32;416643;-88
2023/04/03 11:16:25;;;;;;;5.47;2.77;;;;;;;;;;4351266;32;317467;-84
2023/04/03 11:18:56;;;;;;;5.65;2.97;;;;;;;;;;4357936;32;317259;-80
2023/04/03 11:21:29;;;;;;;8.87;4.83;;;;;;;;;;4344046;32;317194;-84
2023/04/03 11:23:59;;;;;;;14.60;4.70;;;;;;;;;;4354125;32;317349;-88
2023/04/03 11:26:30;;;;;;;14.63;7.63;;;;;;;;;;4343111;32;318498;-87
2023/04/03 11:29:00;;;;;;;12.00;7.33;;;;;;;;;;4354350;32;317555;-86
2023/04/03 11:31:40;;;;;;;43.27;21.30;;;;;;;;;;4343484;32;318156;-85
2023/04/03 11:34:23;;;;;;;65.33;27.03;;;;;;;;;;4364802;32;318505;-85
2023/04/03 11:36:52;;;;;;;17.60;8.50;;;;;;;;;;4353863;32;417640;-86
2023/04/03 11:39:25;;;;;;;29.47;13.33;;;;;;;;;;4359085;32;318606;-88
2023/04/03 11:41:53;;;;;;;15.53;9.40;;;;;;;;;;4368158;32;318807;-84
2023/04/03 11:44:37;;;;;;;17.27;10.33;;;;;;;;;;4357672;32;318115;-85
2023/04/03 11:47:07;;;;;;;17.00;10.27;;;;;;;;;;4369152;32;319498;-90
2023/04/03 11:49:54;;;;;;;15.73;9.00;;;;;;;;;;4361490;32;319323;-86
2023/04/03 11:52:59;;;;;;;13.93;8.80;;;;;;;;;;4368809;32;317799;-79
2023/04/03 11:56:01;;;;;;;21.70;13.23;;;;;;;;;;4375903;32;317472;-84
2023/04/03 11:58:30;;;;;;;18.23;11.27;;;;;;;;;;4370320;32;318656;-90
2023/04/03 12:01:07;;;;;;;20.00;13.00;;;;;;;;;;4372749;32;319235;-88
2023/04/03 12:04:07;;;;;;;30.67;17.60;;;;;;;;;;4345592;32;320243;-90
2023/04/03 12:07:12;;;;;;;28.83;15.70;;;;;;;;;;4355323;32;318592;-90
2023/04/03 12:10:15;;;;;;;32.37;18.40;;;;;;;;;;4363433;32;319419;-91
2023/04/03 12:12:56;;;;;;;29.93;19.97;;;;;;;;;;4366404;32;319165;-81
2023/04/03 12:15:52;;;;;;;23.63;17.57;;;;;;;;;;4359176;32;318753;-83
2023/04/03 12:18:52;;;;;;;27.77;17.53;;;;;;;;;;4361887;32;319366;-88
2023/04/03 12:21:21;;;;;;;19.47;12.53;;;;;;;;;;4357148;32;319568;-89
2023/04/03 12:24:23;;;;;;;19.53;12.17;;;;;;;;;;4370703;32;319513;-90
2023/04/03 12:27:02;;;;;;;22.20;12.47;;;;;;;;;;4356200;32;419581;-85
2023/04/03 12:29:38;;;;;;;22.07;13.13;;;;;;;;;;4358632;32;319278;-92
2023/04/03 12:32:13;;;;;;;23.87;13.80;;;;;;;;;;4368228;32;318786;-90
2023/04/03 12:34:51;;;;;;;26.33;15.93;;;;;;;;;;4343914;32;319898;-87
2023/04/03 12:37:30;;;;;;;21.47;14.67;;;;;;;;;;4351735;32;318864;-86
2023/04/03 12:40:11;;;;;;;23.13;16.30;;;;;;;;;;4353910;32;319391;-88
2023/04/03 12:43:04;;;;;;;19.07;14.53;;;;;;;;;;4349335;32;318853;-90
2023/04/03 12:45:41;;;;;;;20.57;13.43;;;;;;;;;;4356514;32;318747;-89
2023/04/03 12:48:15;;;;;;;27.03;15.90;;;;;;;;;;4367569;32;319246;-87
2023/04/03 12:50:43;;;;;;;21.90;15.10;;;;;;;;;;4357965;32;319330;-87
2023/04/03 12:53:15;;;;;;;22.90;16.50;;;;;;;;;;4358550;32;318373;-83
2023/04/03 12:55:43;;;;;;;18.23;12.47;;;;;;;;;;4353748;32;319382;-85
2023/04/03 12:58:18;;;;;;;15.23;11.27;;;;;;;;;;4349587;32;319476;-85
2023/04/03 13:00:44;;;;;;;16.57;11.03;;;;;;;;;;4341355;32;412538;-85
2023/04/03 13:03:24;;;;;;;17.27;13.40;;;;;;;;;;4364917;32;339377;-88
2023/04/03 13:05:51;;;;;;;19.73;11.17;;;;;;;;;;4352121;32;418314;-87
2023/04/03 13:08:20;;;;;;;22.77;14.67;;;;;;;;;;4359149;32;318770;-84
2023/04/03 13:10:56;;;;;;;26.83;16.97;;;;;;;;;;4364708;32;319198;-85
2023/04/03 13:13:24;;;;;;;21.90;14.97;;;;;;;;;;4372382;32;319236;-89
2023/04/03 13:15:52;;;;;;;22.10;13.60;;;;;;;;;;4380686;32;318839;-83
2023/04/03 13:18:28;;;;;;;23.53;13.80;;;;;;;;;;4372361;32;318682;-86
2023/04/03 13:21:00;;;;;;;23.30;15.13;;;;;;;;;;4382140;32;318619;-87
2023/04/03 13:23:27;;;;;;;24.80;12.83;;;;;;;;;;4372648;32;320020;-87
2023/04/03 13:26:00;;;;;;;29.83;17.93;;;;;;;;;;4380636;32;318865;-84
2023/04/03 13:28:28;;;;;;;25.37;16.17;;;;;;;;;;4357157;32;319359;-86
2023/04/03 13:31:02;;;;;;;24.97;15.87;;;;;;;;;;4365773;32;318813;-86
2023/04/03 13:33:32;;;;;;;14.00;9.47;;;;;;;;;;4357326;32;319436;-88
2023/04/03 13:36:04;;;;;;;80.00;43.90;;;;;;;;;;4366695;32;318172;-86
2023/04/03 13:38:33;;;;;;;31.63;22.57;;;;;;;;;;4356465;32;319411;-88
2023/04/03 13:41:04;;;;;;;48.97;31.20;;;;;;;;;;4365373;32;318606;-87
2023/04/03 13:43:33;;;;;;;29.70;19.27;;;;;;;;;;4355989;32;318824;-86
2023/04/03 13:46:05;;;;;;;23.70;17.33;;;;;;;;;;4366537;32;319171;-86
2023/04/03 13:48:38;;;;;;;25.27;16.63;;;;;;;;;;4357246;32;318722;-85
2023/04/03 13:51:07;;;;;;;26.73;17.77;;;;;;;;;;4366636;32;319439;-84
2023/04/03 13:53:42;;;;;;;41.80;28.07;;;;;;;;;;4362506;32;319511;-86
2023/04/03 13:56:20;;;;;;;32.17;17.90;;;;;;;;;;4367360;32;328139;-85
2023/04/03 13:58:58;;;;;;;24.70;17.20;;;;;;;;;;4354253;32;418614;-86
2023/04/03 14:01:26;;;;;;;23.07;15.90;;;;;;;;;;4346150;32;319354;-85
2023/04/03 14:03:56;;;;;;;20.23;11.53;;;;;;;;;;4352446;32;319832;-87
2023/04/03 14:06:24;;;;;;;18.40;13.80;;;;;;;;;;4346915;32;319425;-87
2023/04/03 14:08:51;;;;;;;18.73;14.80;;;;;;;;;;4356889;32;319668;-85
2023/04/03 14:11:23;;;;;;;20.80;14.97;;;;;;;;;;4341955;32;319557;-86
2023/04/03 14:13:51;;;;;;;13.93;9.50;;;;;;;;;;4351680;32;319073;-82
2023/04/03 14:16:21;;;;;;;24.53;14.87;;;;;;;;;;4341375;32;318593;-84
2023/04/03 14:18:49;;;;;;;18.50;12.97;;;;;;;;;;4350463;32;318991;-83
2023/04/03 14:21:17;;;;;;;14.50;10.67;;;;;;;;;;4351376;32;319834;-85
2023/04/03 14:23:45;;;;;;;10.93;8.30;;;;;;;;;;4338141;32;418563;-85
2023/04/03 14:26:16;;;;;;;9.87;7.80;;;;;;;;;;4364216;32;318361;-85
2023/04/03 14:28:44;;;;;;;28.63;16.13;;;;;;;;;;4352379;32;418139;-86
2023/04/03 14:31:12;;;;;;;57.93;31.13;;;;;;;;;;4365855;32;319001;-82
2023/04/03 14:33:39;;;;;;;65.73;39.90;;;;;;;;;;4355185;32;319996;-84